Time;durP1;ratioP1;P1;durP2;ratioP2;P2;SDS_P1;SDS_P2;PMS_P1;PMS_P2;Temp;Humidity;BMP_temperature;BMP_pressure;BME280_temperature;BME280_humidity;BME280_pressure;Samples;Min_cycle;Max_cycle;Signal;HPM_P1;HPM_P2
2022/05/02 00:00:56;;;;;;;6.78;1.33;;;18.70;99.90;;;;;;5037443;28;20030;-69
2022/05/02 00:03:24;;;;;;;8.25;1.23;;;18.70;99.90;;;;;;5046054;28;20017;-69
2022/05/02 00:05:52;;;;;;;7.10;1.15;;;19.20;99.90;;;;;;5032400;28;20049;-70
2022/05/02 00:08:19;;;;;;;5.90;1.40;;;19.40;99.90;;;;;;5035238;28;20032;-70
2022/05/02 00:10:46;;;;;;;4.85;1.13;;;19.50;99.90;;;;;;5034143;28;20106;-70
2022/05/02 00:13:14;;;;;;;7.95;1.67;;;19.40;99.90;;;;;;5035472;28;20030;-70
2022/05/02 00:15:41;;;;;;;9.05;2.10;;;19.70;99.90;;;;;;5034538;28;20029;-70
2022/05/02 00:18:08;;;;;;;8.02;1.70;;;20.00;99.90;;;;;;5033687;28;20034;-70
2022/05/02 00:20:38;;;;;;;7.78;1.58;;;20.30;99.90;;;;;;5034645;28;20446;-70
2022/05/02 00:23:09;;;;;;;6.97;2.20;;;20.50;99.90;;;;;;5035373;28;20034;-71
2022/05/02 00:25:37;;;;;;;10.02;1.33;;;20.30;99.90;;;;;;5031675;28;20039;-71
2022/05/02 00:28:05;;;;;;;7.75;1.48;;;20.50;99.90;;;;;;5032453;28;20025;-70
2022/05/02 00:30:33;;;;;;;8.68;1.48;;;20.20;99.90;;;;;;5031898;28;20038;-72
2022/05/02 00:33:00;;;;;;;7.90;1.35;;;20.30;99.90;;;;;;5029642;28;20030;-71
2022/05/02 00:35:27;;;;;;;10.25;1.50;;;20.30;99.90;;;;;;5034390;28;20025;-71
2022/05/02 00:37:55;;;;;;;7.95;1.60;;;20.70;99.90;;;;;;5033267;28;20083;-71
2022/05/02 00:40:23;;;;;;;8.65;1.83;;;20.00;99.90;;;;;;5048032;28;20029;-70
2022/05/02 00:42:50;;;;;;;7.78;1.60;;;20.10;99.90;;;;;;5017233;28;20039;-70
2022/05/02 00:45:19;;;;;;;7.93;1.52;;;20.20;99.90;;;;;;5033827;28;20499;-70
2022/05/02 00:47:51;;;;;;;8.57;1.23;;;20.30;99.90;;;;;;5035509;28;20100;-70
2022/05/02 00:50:42;;;;;;;8.88;2.03;;;20.60;99.90;;;;;;5031943;28;20036;-70
2022/05/02 00:53:12;;;;;;;8.57;1.23;;;21.00;99.90;;;;;;5037626;28;20028;-70
2022/05/02 00:55:40;;;;;;;9.23;1.52;;;21.00;99.90;;;;;;5038193;28;20032;-70
2022/05/02 00:58:08;;;;;;;18.65;2.72;;;21.40;99.90;;;;;;5035714;28;20040;-70
2022/05/02 01:00:38;;;;;;;8.65;1.65;;;21.60;99.90;;;;;;5031469;28;20034;-70
2022/05/02 01:03:08;;;;;;;6.20;1.50;;;21.00;99.90;;;;;;5040001;28;20032;-70
2022/05/02 01:08:31;;;;;;;10.10;1.90;;;21.20;99.90;;;;;;5033753;28;20390;-70
2022/05/02 01:10:59;;;;;;;8.70;1.75;;;21.40;99.90;;;;;;5030736;28;20036;-70
2022/05/02 01:13:46;;;;;;;6.93;1.70;;;21.30;99.90;;;;;;5035312;28;20029;-70
2022/05/02 01:16:22;;;;;;;8.27;1.40;;;20.80;99.90;;;;;;5027791;28;20090;-70
2022/05/02 01:18:52;;;;;;;8.77;1.38;;;21.50;99.90;;;;;;5039140;28;20033;-70
2022/05/02 01:21:25;;;;;;;5.63;1.20;;;21.30;99.90;;;;;;5032898;28;20028;-69
2022/05/02 01:23:55;;;;;;;7.33;1.37;;;20.90;99.90;;;;;;5036240;28;20475;-70
2022/05/02 01:26:23;;;;;;;6.68;1.83;;;20.90;99.90;;;;;;5033207;28;20508;-70
2022/05/02 01:28:55;;;;;;;8.98;1.90;;;21.20;99.90;;;;;;5032975;28;20550;-71
2022/05/02 01:31:22;;;;;;;5.10;1.15;;;21.40;99.90;;;;;;5027768;28;20025;-67
2022/05/02 01:33:51;;;;;;;9.13;1.33;;;20.80;99.90;;;;;;5031851;28;20041;-68
2022/05/02 01:36:20;;;;;;;9.13;2.03;;;20.80;99.90;;;;;;5040184;28;20052;-68
2022/05/02 01:38:47;;;;;;;7.32;1.80;;;20.70;99.90;;;;;;5032469;28;20425;-68
2022/05/02 01:41:15;;;;;;;16.08;2.28;;;20.90;99.90;;;;;;5008984;28;20033;-68
2022/05/02 01:43:43;;;;;;;8.82;1.35;;;21.20;99.90;;;;;;5030389;28;20034;-68
2022/05/02 01:46:12;;;;;;;9.15;1.48;;;21.20;99.90;;;;;;5031454;28;20362;-69
2022/05/02 01:48:40;;;;;;;4.75;1.10;;;21.10;99.90;;;;;;5031724;28;20468;-69
2022/05/02 01:51:07;;;;;;;6.45;1.63;;;21.10;99.90;;;;;;5037733;28;20060;-71
2022/05/02 01:53:34;;;;;;;6.03;0.93;;;21.10;99.90;;;;;;5028871;28;20109;-70
2022/05/02 01:56:02;;;;;;;7.18;2.20;;;21.20;99.90;;;;;;5034906;28;20037;-69
2022/05/02 01:58:29;;;;;;;7.15;1.52;;;21.40;99.90;;;;;;5030801;28;20028;-69
2022/05/02 02:00:56;;;;;;;5.57;1.50;;;22.00;99.90;;;;;;5026873;28;20033;-70
2022/05/02 02:03:24;;;;;;;8.63;1.80;;;22.70;99.90;;;;;;5032846;28;20025;-70
2022/05/02 02:05:51;;;;;;;4.95;1.85;;;23.20;99.90;;;;;;5031775;28;20049;-69
2022/05/02 02:08:21;;;;;;;6.55;1.20;;;23.20;99.90;;;;;;5039360;28;20028;-70
2022/05/02 02:10:49;;;;;;;8.75;2.42;;;22.70;99.90;;;;;;5042680;28;20017;-70
2022/05/02 02:13:17;;;;;;;5.75;1.17;;;22.10;99.90;;;;;;5044045;28;20017;-69
2022/05/02 02:15:45;;;;;;;10.65;2.38;;;21.80;99.90;;;;;;5031867;28;20041;-69
2022/05/02 02:18:13;;;;;;;13.75;1.40;;;21.60;99.90;;;;;;5031132;28;20026;-69
2022/05/02 02:20:48;;;;;;;6.53;2.30;;;21.10;99.90;;;;;;5040718;28;20370;-69
2022/05/02 02:23:16;;;;;;;4.85;1.65;;;21.00;99.90;;;;;;5032513;28;20082;-69
2022/05/02 02:25:44;;;;;;;6.72;1.75;;;21.00;99.90;;;;;;5031996;28;20513;-69
2022/05/02 02:28:15;;;;;;;4.13;1.10;;;20.80;99.90;;;;;;5032529;28;20029;-69
2022/05/02 02:30:43;;;;;;;7.95;1.90;;;20.70;99.90;;;;;;5039603;28;20482;-69
2022/05/02 02:33:10;;;;;;;10.20;2.42;;;20.60;99.90;;;;;;5031343;28;20022;-69
2022/05/02 02:35:37;;;;;;;6.78;1.85;;;20.50;99.90;;;;;;5030283;28;20102;-69
2022/05/02 02:38:05;;;;;;;9.52;2.17;;;20.50;99.90;;;;;;5032983;28;20036;-69
2022/05/02 02:40:32;;;;;;;7.22;1.95;;;20.50;99.90;;;;;;5031208;28;20036;-69
2022/05/02 02:43:00;;;;;;;9.52;1.75;;;20.40;99.90;;;;;;5026235;28;20441;-69
2022/05/02 02:45:27;;;;;;;5.57;1.55;;;20.30;99.90;;;;;;5030183;28;20095;-69
2022/05/02 02:47:54;;;;;;;7.45;1.98;;;20.60;99.90;;;;;;5030550;28;20087;-68
2022/05/02 02:50:21;;;;;;;5.55;1.42;;;20.90;99.90;;;;;;5029163;28;20052;-68
2022/05/02 02:52:49;;;;;;;7.43;1.65;;;21.10;99.90;;;;;;5031402;28;20033;-68
2022/05/02 02:55:17;;;;;;;5.35;1.10;;;21.40;99.90;;;;;;5034928;28;20033;-68
2022/05/02 02:57:44;;;;;;;11.15;1.88;;;22.20;99.90;;;;;;5034222;28;20033;-70
2022/05/02 03:00:12;;;;;;;7.60;1.63;;;22.40;99.90;;;;;;5032167;28;20385;-70
2022/05/02 03:02:42;;;;;;;11.52;2.20;;;22.50;99.90;;;;;;5036024;28;20030;-70
2022/05/02 03:07:56;;;;;;;9.55;1.92;;;22.50;99.90;;;;;;5028523;28;20051;-72
2022/05/02 03:10:24;;;;;;;8.75;1.73;;;22.30;99.90;;;;;;5031239;28;20261;-72
2022/05/02 03:12:51;;;;;;;6.75;1.30;;;21.90;99.90;;;;;;5035135;28;20041;-71
2022/05/02 03:15:19;;;;;;;8.38;1.80;;;21.90;99.90;;;;;;5035250;28;20087;-71
2022/05/02 03:17:46;;;;;;;8.88;2.45;;;22.30;99.90;;;;;;5034657;28;20033;-71
2022/05/02 03:20:13;;;;;;;4.88;1.55;;;22.50;99.90;;;;;;5033120;28;20124;-71
2022/05/02 03:22:41;;;;;;;9.52;1.50;;;22.70;99.90;;;;;;5035962;28;20029;-71
2022/05/02 03:25:09;;;;;;;7.60;1.48;;;22.20;99.90;;;;;;5033304;28;20030;-71
2022/05/02 03:27:36;;;;;;;5.63;1.10;;;21.90;99.90;;;;;;5034564;28;20026;-71
2022/05/02 03:30:03;;;;;;;8.27;1.45;;;21.60;99.90;;;;;;5034830;28;20025;-71
2022/05/02 03:32:31;;;;;;;5.30;1.13;;;22.00;99.90;;;;;;5028254;28;20033;-71
2022/05/02 03:34:58;;;;;;;5.60;1.20;;;21.90;99.90;;;;;;5033577;28;20100;-71
2022/05/02 03:37:25;;;;;;;6.63;1.88;;;22.00;99.90;;;;;;5031063;28;20075;-72
2022/05/02 03:39:52;;;;;;;10.07;2.00;;;22.20;99.90;;;;;;5034271;28;20060;-72
2022/05/02 03:42:20;;;;;;;6.20;1.20;;;21.80;99.90;;;;;;5034972;28;20088;-71
2022/05/02 03:44:47;;;;;;;5.80;1.10;;;21.90;99.90;;;;;;5036179;28;20045;-72
2022/05/02 03:47:14;;;;;;;7.85;1.30;;;21.70;99.90;;;;;;5034746;28;20029;-72
2022/05/02 03:49:42;;;;;;;6.03;1.23;;;21.60;99.90;;;;;;5036590;28;20087;-72
2022/05/02 03:52:09;;;;;;;8.60;2.10;;;21.40;99.90;;;;;;5034931;28;20029;-71
2022/05/02 03:54:36;;;;;;;10.40;1.70;;;21.10;99.90;;;;;;5036048;28;20033;-70
2022/05/02 03:57:06;;;;;;;7.78;1.33;;;21.20;99.90;;;;;;5034449;28;20037;-72
2022/05/02 03:59:34;;;;;;;5.40;1.42;;;21.10;99.90;;;;;;5035039;28;20064;-72
2022/05/02 04:02:01;;;;;;;13.27;1.83;;;21.00;99.90;;;;;;5032749;28;20072;-71
2022/05/02 04:04:28;;;;;;;7.00;1.90;;;20.90;99.90;;;;;;5031341;28;20679;-71
2022/05/02 04:06:56;;;;;;;6.60;1.42;;;20.90;99.90;;;;;;5035493;28;20021;-70
2022/05/02 04:09:24;;;;;;;10.88;2.25;;;20.90;99.90;;;;;;5033838;28;20026;-70
2022/05/02 04:11:54;;;;;;;12.95;2.67;;;21.00;99.90;;;;;;5010538;28;20029;-70
2022/05/02 04:14:21;;;;;;;11.20;1.92;;;20.80;99.90;;;;;;5036669;28;20024;-71
2022/05/02 04:16:52;;;;;;;8.82;1.65;;;20.70;99.90;;;;;;5035259;28;20033;-71
2022/05/02 04:19:19;;;;;;;7.20;1.55;;;20.60;99.90;;;;;;5034241;28;20034;-71
2022/05/02 04:21:46;;;;;;;8.18;2.22;;;20.50;99.90;;;;;;5033809;28;20389;-72
2022/05/02 04:24:14;;;;;;;7.85;1.30;;;20.50;99.90;;;;;;5035241;28;20509;-71
2022/05/02 04:26:41;;;;;;;13.75;2.30;;;20.60;99.90;;;;;;5035177;28;20167;-71
2022/05/02 04:29:09;;;;;;;15.20;1.75;;;20.60;99.90;;;;;;5033450;28;20029;-71
2022/05/02 04:31:36;;;;;;;10.70;1.40;;;20.60;99.90;;;;;;5031780;28;20592;-71
2022/05/02 04:34:03;;;;;;;5.90;1.17;;;20.70;99.90;;;;;;5033953;28;20508;-71
2022/05/02 04:36:31;;;;;;;4.00;0.90;;;20.80;99.90;;;;;;5034924;28;20049;-71
2022/05/02 04:38:58;;;;;;;5.72;0.88;;;20.70;99.90;;;;;;5035096;28;20032;-71
2022/05/02 04:41:25;;;;;;;4.35;0.90;;;20.90;99.90;;;;;;5027670;28;20036;-70
2022/05/02 04:43:53;;;;;;;4.03;0.50;;;21.00;99.90;;;;;;5031468;28;20041;-71
2022/05/02 04:46:23;;;;;;;6.63;1.35;;;21.30;99.90;;;;;;5033865;28;20029;-70
2022/05/02 04:48:50;;;;;;;3.67;0.60;;;21.40;99.90;;;;;;5034799;28;20041;-72
2022/05/02 04:51:17;;;;;;;4.13;1.00;;;21.40;99.90;;;;;;5035190;28;20026;-71
2022/05/02 04:53:45;;;;;;;10.45;1.15;;;21.40;99.90;;;;;;5034937;28;20039;-72
2022/05/02 04:56:12;;;;;;;7.30;1.00;;;21.20;99.90;;;;;;5036585;28;20025;-71
2022/05/02 04:58:39;;;;;;;6.35;0.90;;;21.20;99.90;;;;;;5035922;28;20029;-71
2022/05/02 05:01:07;;;;;;;4.40;0.63;;;21.20;99.90;;;;;;5031574;28;20432;-71
2022/05/02 05:03:36;;;;;;;9.32;0.70;;;21.10;99.90;;;;;;5028647;28;20021;-71
2022/05/02 05:06:03;;;;;;;10.30;1.33;;;21.10;99.90;;;;;;5033067;28;20049;-71
2022/05/02 05:08:31;;;;;;;4.47;1.13;;;21.10;99.90;;;;;;5031792;28;20079;-71
2022/05/02 05:11:09;;;;;;;7.88;1.35;;;21.10;99.90;;;;;;5030978;28;20067;-71
2022/05/02 05:16:20;;;;;;;7.28;1.35;;;21.10;99.90;;;;;;5052505;28;20027;-71
2022/05/02 05:16:59;;;;;;;8.52;1.25;;;21.20;99.90;;;;;;5038993;28;20029;-72
2022/05/02 05:19:29;;;;;;;5.03;1.05;;;21.00;99.90;;;;;;5036764;28;20042;-71
2022/05/02 05:21:59;;;;;;;4.32;1.08;;;20.90;99.90;;;;;;5028590;28;20022;-71
2022/05/02 05:24:47;;;;;;;10.07;1.10;;;20.90;99.90;;;;;;5029341;28;20104;-71
2022/05/02 05:27:49;;;;;;;8.45;1.80;;;20.80;99.90;;;;;;5029411;28;20026;-71
2022/05/02 05:30:21;;;;;;;5.93;1.02;;;20.70;99.90;;;;;;5026909;28;20029;-69
2022/05/02 05:33:31;;;;;;;7.47;1.05;;;20.70;99.90;;;;;;5034045;28;20112;-69
2022/05/02 05:36:09;;;;;;;9.02;1.67;;;20.70;99.90;;;;;;5022033;28;20042;-69
2022/05/02 05:38:39;;;;;;;10.25;1.83;;;20.70;99.90;;;;;;5033579;28;20030;-68
2022/05/02 05:41:21;;;;;;;7.45;1.83;;;20.70;99.90;;;;;;5030620;28;20547;-68
2022/05/02 05:44:07;;;;;;;9.85;1.75;;;20.70;99.90;;;;;;5033280;28;20378;-70
2022/05/02 05:47:01;;;;;;;5.85;1.13;;;20.70;99.90;;;;;;5023293;28;20097;-69
2022/05/02 05:50:09;;;;;;;6.60;1.17;;;20.70;99.90;;;;;;5032516;28;20025;-70
2022/05/02 05:52:58;;;;;;;8.15;1.13;;;20.70;99.90;;;;;;5024460;28;20769;-69
2022/05/02 05:55:43;;;;;;;6.82;1.13;;;20.60;99.90;;;;;;5021286;28;20021;-70
2022/05/02 05:58:20;;;;;;;6.00;1.10;;;20.50;99.90;;;;;;5033380;28;20032;-69
2022/05/02 06:00:52;;;;;;;7.28;1.17;;;20.60;99.90;;;;;;5033425;28;20111;-70
2022/05/02 06:03:31;;;;;;;6.00;1.33;;;20.50;99.90;;;;;;5015815;28;20112;-69
2022/05/02 06:05:59;;;;;;;9.40;1.35;;;20.50;99.90;;;;;;5029554;28;20994;-69
2022/05/02 06:08:27;;;;;;;6.75;0.82;;;20.50;99.90;;;;;;5033065;28;20029;-70
2022/05/02 06:10:58;;;;;;;5.78;0.90;;;20.40;99.90;;;;;;5013326;28;20362;-70
2022/05/02 06:13:32;;;;;;;7.03;0.90;;;20.40;99.90;;;;;;5032245;28;20478;-70
2022/05/02 06:18:48;;;;;;;6.20;1.02;;;20.40;99.90;;;;;;5025464;28;20057;-68
2022/05/02 06:21:22;;;;;;;3.42;0.90;;;20.40;99.90;;;;;;5031607;28;20023;-68
2022/05/02 06:23:52;;;;;;;4.70;1.10;;;20.20;99.90;;;;;;5032160;28;20108;-70
2022/05/02 06:26:23;;;;;;;11.30;1.48;;;20.20;99.90;;;;;;5030899;28;20068;-70
2022/05/02 06:28:52;;;;;;;10.55;2.03;;;20.20;99.90;;;;;;5031479;28;20033;-70
2022/05/02 06:31:30;;;;;;;9.38;1.90;;;20.30;99.90;;;;;;5032586;28;20127;-70
2022/05/02 06:34:02;;;;;;;8.15;1.35;;;20.20;99.90;;;;;;5031405;28;20036;-70
2022/05/02 06:36:35;;;;;;;5.75;1.55;;;20.10;99.90;;;;;;5032416;28;20083;-70
2022/05/02 06:39:03;;;;;;;4.00;0.70;;;20.00;99.90;;;;;;5031541;28;20033;-70
2022/05/02 06:41:45;;;;;;;7.00;1.00;;;19.90;99.90;;;;;;5029229;28;20024;-70
2022/05/02 06:44:36;;;;;;;6.60;1.63;;;19.90;99.90;;;;;;5028419;28;20022;-69
2022/05/02 06:47:25;;;;;;;5.65;1.50;;;19.90;99.90;;;;;;5028545;28;20039;-70
2022/05/02 06:49:57;;;;;;;6.22;0.93;;;19.80;99.90;;;;;;5032362;28;20022;-70
2022/05/02 06:52:39;;;;;;;9.85;2.00;;;19.70;99.90;;;;;;5031435;28;20025;-70
2022/05/02 06:55:31;;;;;;;7.00;1.35;;;19.70;99.90;;;;;;5033097;28;20091;-70
2022/05/02 06:58:30;;;;;;;4.93;0.93;;;19.60;99.90;;;;;;5030214;28;20156;-70
2022/05/02 07:01:23;;;;;;;5.22;0.80;;;19.50;99.90;;;;;;5030134;28;20037;-69
2022/05/02 07:04:10;;;;;;;5.20;1.05;;;19.50;99.90;;;;;;5032807;28;20108;-70
2022/05/02 07:07:02;;;;;;;7.35;1.42;;;19.40;99.90;;;;;;5020619;28;20515;-70
2022/05/02 07:09:45;;;;;;;7.82;0.80;;;19.30;99.90;;;;;;5040966;28;20025;-70
2022/05/02 07:12:22;;;;;;;5.70;1.05;;;19.30;99.90;;;;;;5028979;28;20025;-70
2022/05/02 07:15:12;;;;;;;6.68;0.95;;;19.20;99.90;;;;;;5029522;28;20013;-70
2022/05/02 07:18:05;;;;;;;9.90;1.52;;;19.20;99.90;;;;;;5030710;28;20512;-70
2022/05/02 07:21:11;;;;;;;8.25;1.30;;;19.20;99.90;;;;;;5024672;28;20033;-70
2022/05/02 07:24:03;;;;;;;9.27;1.38;;;19.20;99.90;;;;;;5029638;28;20029;-70
2022/05/02 07:26:34;;;;;;;7.53;1.00;;;19.10;99.90;;;;;;5027994;28;20017;-71
2022/05/02 07:29:04;;;;;;;9.70;0.93;;;19.10;99.90;;;;;;5032360;28;20017;-70
2022/05/02 07:31:33;;;;;;;8.90;1.00;;;19.00;99.90;;;;;;5031506;28;20038;-71
2022/05/02 07:34:02;;;;;;;3.83;1.48;;;19.00;99.90;;;;;;5028796;28;20029;-70
2022/05/02 07:36:31;;;;;;;9.35;1.58;;;19.00;99.90;;;;;;5030738;28;20025;-71
2022/05/02 07:39:08;;;;;;;13.18;1.73;;;18.90;99.90;;;;;;5034266;28;20092;-71
2022/05/02 07:41:36;;;;;;;9.85;1.60;;;18.90;99.90;;;;;;5032526;28;20022;-71
2022/05/02 07:44:08;;;;;;;5.70;1.23;;;18.90;99.90;;;;;;5039414;28;20116;-71
2022/05/02 07:46:45;;;;;;;11.35;2.20;;;18.80;99.90;;;;;;5038666;28;20488;-71
2022/05/02 07:49:22;;;;;;;8.57;2.05;;;18.80;99.90;;;;;;5032707;28;20021;-71
2022/05/02 07:51:51;;;;;;;8.23;1.85;;;18.80;99.90;;;;;;5032844;28;20033;-71
2022/05/02 07:54:25;;;;;;;5.57;1.60;;;18.80;99.90;;;;;;5026704;28;20022;-71
2022/05/02 07:57:03;;;;;;;5.57;1.75;;;18.70;99.90;;;;;;5042011;28;20037;-71
2022/05/02 07:59:41;;;;;;;6.53;1.60;;;18.70;99.90;;;;;;5031588;28;20025;-71
2022/05/02 08:02:09;;;;;;;8.00;1.85;;;18.70;99.90;;;;;;5033213;28;21813;-71
2022/05/02 08:04:38;;;;;;;8.00;2.28;;;18.60;99.90;;;;;;5033379;28;20077;-71
2022/05/02 08:07:18;;;;;;;9.15;1.40;;;18.70;99.90;;;;;;5035361;28;20030;-71
2022/05/02 08:10:11;;;;;;;6.90;2.20;;;18.60;99.90;;;;;;5031054;28;20037;-69
2022/05/02 08:12:40;;;;;;;8.27;1.70;;;18.60;99.90;;;;;;5020835;28;20389;-71
2022/05/02 08:15:25;;;;;;;6.97;1.33;;;18.60;99.90;;;;;;5035297;28;20116;-71
2022/05/02 08:18:25;;;;;;;8.45;1.67;;;18.60;99.90;;;;;;5035617;28;20029;-72
2022/05/02 08:21:24;;;;;;;6.82;1.40;;;18.60;99.90;;;;;;5035483;28;20563;-71
2022/05/02 08:27:41;;;;;;;7.65;1.83;;;18.50;99.90;;;;;;5034774;28;20056;-72
2022/05/02 08:30:22;;;;;;;11.10;1.70;;;18.50;99.90;;;;;;5045047;28;20040;-71
2022/05/02 08:33:06;;;;;;;7.20;1.40;;;18.50;99.90;;;;;;5038955;28;20159;-71
2022/05/02 08:35:55;;;;;;;7.32;1.95;;;18.50;99.90;;;;;;5020574;28;20038;-71
2022/05/02 08:38:43;;;;;;;10.48;1.77;;;18.50;99.90;;;;;;5030808;28;20033;-71
2022/05/02 08:41:11;;;;;;;10.98;2.35;;;18.50;99.90;;;;;;5033642;28;20057;-71
2022/05/02 08:43:56;;;;;;;6.90;1.90;;;18.50;99.90;;;;;;5030432;28;20530;-71
2022/05/02 08:46:41;;;;;;;7.40;2.17;;;18.50;99.90;;;;;;5038979;28;20052;-71
2022/05/02 08:49:38;;;;;;;4.78;1.77;;;18.50;99.90;;;;;;5034645;28;20436;-71
2022/05/02 08:52:56;;;;;;;7.55;1.23;;;18.40;99.90;;;;;;5054898;28;20028;-71
2022/05/02 08:55:26;;;;;;;8.60;1.10;;;18.50;99.90;;;;;;4982520;28;20359;-70
2022/05/02 08:58:09;;;;;;;11.30;1.50;;;18.50;99.90;;;;;;5038558;28;20473;-70
2022/05/02 09:00:57;;;;;;;12.82;1.67;;;18.50;99.90;;;;;;5034232;28;20013;-71
2022/05/02 09:03:51;;;;;;;11.10;1.77;;;18.50;99.90;;;;;;5024879;28;20505;-71
2022/05/02 09:06:34;;;;;;;9.73;1.60;;;18.40;99.90;;;;;;5016558;28;20052;-71
2022/05/02 09:09:32;;;;;;;8.68;1.63;;;18.40;99.90;;;;;;5023819;28;20026;-71
2022/05/02 09:12:20;;;;;;;7.85;2.25;;;18.40;99.90;;;;;;5034601;28;20025;-71
2022/05/02 09:14:54;;;;;;;5.95;1.50;;;18.40;99.90;;;;;;5017147;28;20520;-71
2022/05/02 09:17:45;;;;;;;7.03;1.77;;;18.40;99.90;;;;;;5032695;28;20120;-71
2022/05/02 09:20:29;;;;;;;7.85;2.15;;;18.30;99.90;;;;;;5034291;28;20120;-71
2022/05/02 09:23:12;;;;;;;;;;;18.30;99.90;;;;;;5036150;28;20025;-70
2022/05/02 09:25:57;;;;;;;7.40;2.35;;;18.20;99.90;;;;;;5033392;28;20423;-71
2022/05/02 09:29:02;;;;;;;6.88;2.25;;;18.20;99.90;;;;;;5033973;28;20026;-71
2022/05/02 09:32:07;;;;;;;;;;;18.20;99.90;;;;;;4997658;28;20037;-70
2022/05/02 09:34:46;;;;;;;7.68;1.38;;;18.20;99.90;;;;;;4983140;28;19914;-69
2022/05/02 09:37:23;;;;;;;6.63;1.60;;;18.20;99.90;;;;;;4982622;28;20062;-69
2022/05/02 09:40:08;;;;;;;11.20;1.25;;;18.20;99.90;;;;;;5005868;28;20068;-69
2022/05/02 09:42:45;;;;;;;7.38;1.48;;;18.10;99.90;;;;;;5023499;28;20044;-68
2022/05/02 09:51:32;;;;;;;8.73;1.98;;;18.10;99.90;;;;;;5038563;28;20039;-69
2022/05/02 09:57:41;;;;;;;9.35;1.70;;;18.10;99.90;;;;;;5016919;28;20271;-69
2022/05/02 10:03:25;;;;;;;9.32;2.55;;;18.10;99.90;;;;;;5033476;28;20048;-70
2022/05/02 10:06:07;;;;;;;10.93;2.75;;;18.10;99.90;;;;;;5033152;28;20045;-69
2022/05/02 10:09:01;;;;;;;7.40;2.10;;;18.00;99.90;;;;;;5029182;28;20456;-69
2022/05/02 10:11:51;;;;;;;9.20;2.28;;;18.00;99.90;;;;;;5018145;28;20025;-69
2022/05/02 10:14:31;;;;;;;7.22;2.00;;;18.00;99.90;;;;;;5032485;28;20029;-69
2022/05/02 10:17:03;;;;;;;9.52;1.65;;;18.00;99.90;;;;;;5017907;28;20036;-70
2022/05/02 10:19:52;;;;;;;5.78;1.40;;;17.90;99.90;;;;;;5023798;28;20033;-69
2022/05/02 10:22:29;;;;;;;9.68;1.63;;;17.90;99.90;;;;;;5032885;28;20021;-69
2022/05/02 10:25:11;;;;;;;7.95;1.55;;;17.90;99.90;;;;;;5017006;28;20038;-69
2022/05/02 10:27:44;;;;;;;9.57;1.90;;;17.90;99.90;;;;;;5032841;28;20022;-69
2022/05/02 10:30:13;;;;;;;8.18;2.15;;;17.80;99.90;;;;;;5035654;28;20013;-69
2022/05/02 10:32:45;;;;;;;9.80;3.25;;;17.80;99.90;;;;;;5039360;28;20028;-69
2022/05/02 10:35:14;;;;;;;10.80;6.65;;;17.80;99.90;;;;;;5031794;28;20021;-69
2022/05/02 10:37:54;;;;;;;15.10;8.30;;;17.80;99.90;;;;;;5030841;28;20108;-69
2022/05/02 10:40:50;;;;;;;16.65;10.30;;;17.80;99.90;;;;;;5037021;28;20029;-69
2022/05/02 10:43:27;;;;;;;11.32;7.65;;;17.80;99.90;;;;;;5032209;28;20083;-69
2022/05/02 10:45:54;;;;;;;14.32;5.22;;;17.80;99.90;;;;;;5032184;28;20029;-69
2022/05/02 10:48:50;;;;;;;11.60;4.80;;;17.70;99.90;;;;;;5022389;28;20033;-69
2022/05/02 10:51:51;;;;;;;8.85;4.60;;;17.70;99.90;;;;;;5040760;28;20064;-69
2022/05/02 10:54:36;;;;;;;8.75;2.88;;;17.70;99.90;;;;;;5026626;28;20028;-69
2022/05/02 10:57:18;;;;;;;6.32;2.28;;;17.70;99.90;;;;;;5033556;28;20029;-69
2022/05/02 10:59:49;;;;;;;11.93;2.90;;;17.60;99.90;;;;;;5014654;28;20029;-69
2022/05/02 11:02:40;;;;;;;3.80;1.60;;;17.60;99.90;;;;;;5030528;28;20029;-69
2022/05/02 11:05:18;;;;;;;7.18;2.05;;;17.60;99.90;;;;;;5027192;28;20053;-68
2022/05/02 11:08:07;;;;;;;7.05;2.00;;;17.60;99.90;;;;;;5033594;28;20053;-69
2022/05/02 11:10:50;;;;;;;5.55;1.60;;;17.50;99.90;;;;;;5023636;28;20025;-69
2022/05/02 11:13:50;;;;;;;7.60;2.15;;;17.50;99.90;;;;;;5033002;28;20025;-69
2022/05/02 11:16:31;;;;;;;11.35;1.70;;;17.40;99.90;;;;;;5032168;28;20071;-69
2022/05/02 11:22:14;;;;;;;7.00;1.85;;;17.40;99.90;;;;;;5036688;28;20659;-69
2022/05/02 11:24:58;;;;;;;7.72;2.67;;;17.50;99.90;;;;;;5041561;28;20103;-69
2022/05/02 11:27:43;;;;;;;13.50;2.63;;;17.50;99.90;;;;;;5031420;28;20067;-69
2022/05/02 11:30:13;;;;;;;11.43;2.05;;;17.50;99.90;;;;;;5036534;28;20080;-69
2022/05/02 11:32:52;;;;;;;6.82;1.80;;;17.40;99.90;;;;;;5049709;28;20388;-69
2022/05/02 11:35:48;;;;;;;8.85;1.52;;;17.40;99.90;;;;;;5034781;28;20029;-69
2022/05/02 11:38:55;;;;;;;7.30;1.23;;;17.40;99.90;;;;;;5037696;28;20489;-69
2022/05/02 11:41:23;;;;;;;8.13;1.17;;;17.40;99.90;;;;;;5025840;28;20478;-69
2022/05/02 11:44:06;;;;;;;7.38;1.25;;;17.40;99.90;;;;;;5035959;28;20093;-69
2022/05/02 11:47:03;;;;;;;5.45;1.30;;;17.50;99.90;;;;;;5035902;28;20025;-69
2022/05/02 11:49:57;;;;;;;7.32;1.02;;;17.50;99.90;;;;;;5026135;28;20045;-70
2022/05/02 11:52:32;;;;;;;5.85;0.93;;;17.50;99.90;;;;;;5016357;28;20033;-70
2022/05/02 11:55:00;;;;;;;2.65;0.73;;;17.50;99.90;;;;;;5032837;28;20032;-69
2022/05/02 11:57:29;;;;;;;10.00;1.38;;;17.50;99.90;;;;;;5035104;28;20041;-69
2022/05/02 12:00:09;;;;;;;5.93;1.00;;;17.50;99.90;;;;;;5032382;28;20441;-69
2022/05/02 12:02:48;;;;;;;5.60;0.77;;;17.50;99.90;;;;;;5036019;28;20385;-69
2022/05/02 12:05:34;;;;;;;6.03;0.98;;;17.50;99.90;;;;;;5031623;28;20456;-69
2022/05/02 12:08:03;;;;;;;6.25;0.75;;;17.50;99.90;;;;;;5033904;28;20436;-69
2022/05/02 12:10:42;;;;;;;5.90;1.00;;;17.50;99.90;;;;;;5032264;28;20022;-69
2022/05/02 12:13:15;;;;;;;7.65;1.02;;;17.50;99.90;;;;;;5030762;28;20037;-69
2022/05/02 12:16:00;;;;;;;11.02;1.42;;;17.50;99.90;;;;;;5029283;28;20029;-69
2022/05/02 12:18:47;;;;;;;5.63;1.13;;;17.50;99.90;;;;;;5028467;28;20029;-69
2022/05/02 12:21:23;;;;;;;5.70;1.15;;;17.50;99.90;;;;;;5029819;28;20025;-69
2022/05/02 12:23:52;;;;;;;5.65;1.23;;;17.50;99.90;;;;;;5030267;28;20420;-69
2022/05/02 12:26:24;;;;;;;6.75;1.17;;;17.50;99.90;;;;;;5030719;28;20378;-69
2022/05/02 12:28:55;;;;;;;5.60;1.02;;;17.50;99.90;;;;;;5035032;28;20104;-69
2022/05/02 12:31:34;;;;;;;7.75;1.05;;;17.50;99.90;;;;;;5038885;28;20102;-69
2022/05/02 12:34:09;;;;;;;9.10;1.05;;;17.50;99.90;;;;;;5039525;28;20029;-69
2022/05/02 12:36:46;;;;;;;6.75;1.02;;;17.50;99.90;;;;;;5033790;28;20071;-69
2022/05/02 12:39:44;;;;;;;6.35;1.20;;;17.50;99.90;;;;;;5030093;28;20303;-69
2022/05/02 12:42:16;;;;;;;7.18;0.95;;;17.60;99.90;;;;;;5032238;28;20045;-69
2022/05/02 12:45:11;;;;;;;6.45;1.35;;;17.60;99.90;;;;;;5032967;28;20492;-69
2022/05/02 12:47:53;;;;;;;8.10;1.48;;;17.60;99.90;;;;;;5033640;28;20079;-69
2022/05/02 12:50:23;;;;;;;6.15;1.10;;;17.60;99.90;;;;;;5015221;28;20048;-69
2022/05/02 12:52:52;;;;;;;6.78;1.15;;;17.50;99.90;;;;;;5034465;28;20028;-69
2022/05/02 12:55:22;;;;;;;9.60;1.67;;;17.50;99.90;;;;;;5032209;28;20554;-69
2022/05/02 13:01:01;;;;;;;7.85;1.58;;;17.40;99.90;;;;;;4989900;28;20508;-69
2022/05/02 13:03:30;;;;;;;9.45;1.60;;;17.30;99.90;;;;;;5032025;28;20358;-69
2022/05/02 13:06:11;;;;;;;5.88;1.60;;;17.30;99.90;;;;;;5032931;28;20124;-69
2022/05/02 13:08:43;;;;;;;8.80;2.53;;;17.30;99.90;;;;;;5030929;28;20032;-69
2022/05/02 13:11:11;;;;;;;5.70;1.25;;;17.20;99.90;;;;;;5033632;28;20032;-69
2022/05/02 13:13:52;;;;;;;5.97;1.77;;;17.20;99.90;;;;;;5030370;28;20087;-69
2022/05/02 13:16:33;;;;;;;6.75;1.70;;;17.20;99.90;;;;;;5031593;28;20121;-69
2022/05/02 13:19:04;;;;;;;8.23;1.60;;;17.20;99.90;;;;;;5032391;28;20083;-69
2022/05/02 13:21:32;;;;;;;8.27;1.90;;;17.20;99.90;;;;;;5035923;28;20068;-69
2022/05/02 13:24:10;;;;;;;5.82;1.70;;;17.20;99.90;;;;;;5033791;28;20028;-69
2022/05/02 13:26:48;;;;;;;6.65;1.40;;;17.20;99.90;;;;;;5035261;28;20116;-70
2022/05/02 13:29:39;;;;;;;5.30;1.48;;;17.20;99.90;;;;;;5014120;28;20037;-69
2022/05/02 13:32:10;;;;;;;4.93;1.38;;;17.10;99.90;;;;;;5030937;28;20052;-70
2022/05/02 13:34:42;;;;;;;10.05;1.70;;;17.10;99.90;;;;;;5032553;28;20036;-69
2022/05/02 13:37:22;;;;;;;4.47;1.88;;;17.00;99.90;;;;;;5032581;28;20120;-67
2022/05/02 13:40:08;;;;;;;8.10;1.70;;;17.00;99.90;;;;;;5032456;28;20111;-67
2022/05/02 13:42:36;;;;;;;8.82;1.55;;;17.00;99.90;;;;;;5031513;28;20754;-67
2022/05/02 13:45:25;;;;;;;12.32;2.47;;;17.00;99.90;;;;;;5031802;28;20055;-67
2022/05/02 13:48:01;;;;;;;6.78;1.50;;;17.00;99.90;;;;;;5018457;28;20132;-68
2022/05/02 13:50:31;;;;;;;9.13;1.95;;;17.00;99.90;;;;;;5029801;28;20029;-69
2022/05/02 13:53:18;;;;;;;6.95;1.45;;;17.00;99.90;;;;;;5034714;28;20029;-69
2022/05/02 13:56:13;;;;;;;14.65;2.20;;;16.90;99.90;;;;;;5045221;28;20040;-69
2022/05/02 13:58:49;;;;;;;;;;;16.90;99.90;;;;;;4996429;28;20044;-69
2022/05/02 14:01:44;;;;;;;9.82;2.13;;;16.80;99.90;;;;;;5026843;28;20428;-69